Time;durP1;ratioP1;P1;durP2;ratioP2;P2;SDS_P1;SDS_P2;PMS_P1;PMS_P2;Temp;Humidity;BMP_temperature;BMP_pressure;BME280_temperature;BME280_humidity;BME280_pressure;Samples;Min_cycle;Max_cycle;Signal;HPM_P1;HPM_P2
2023/09/23 00:01:25;;;;;;;3.20;1.50;;;;;;;21.56;51.07;100660.00;5047589;28;20155;-67
2023/09/23 00:03:51;;;;;;;3.35;1.70;;;;;;;21.56;51.15;100671.41;5047858;28;20382;-67
2023/09/23 00:06:16;;;;;;;3.22;1.58;;;;;;;21.54;51.27;100668.09;5047109;28;20025;-66
2023/09/23 00:08:43;;;;;;;3.10;1.50;;;;;;;21.55;50.77;100668.91;5047313;28;20035;-67
2023/09/23 00:11:08;;;;;;;3.00;1.75;;;;;;;21.55;51.21;100676.88;5029260;28;20036;-69
2023/09/23 00:13:35;;;;;;;3.13;1.70;;;;;;;21.54;50.96;100673.41;5030335;28;20032;-68
2023/09/23 00:16:07;;;;;;;3.63;1.80;;;;;;;21.53;50.82;100673.56;5047799;28;20389;-69
2023/09/23 00:18:33;;;;;;;2.80;1.77;;;;;;;21.55;50.93;100679.53;5047841;28;20025;-68
2023/09/23 00:20:58;;;;;;;3.33;1.65;;;;;;;21.53;50.43;100681.50;5047528;28;20040;-67
2023/09/23 00:23:23;;;;;;;3.47;1.70;;;;;;;21.53;50.75;100676.19;5047519;28;20021;-67
2023/09/23 00:25:49;;;;;;;2.97;1.38;;;;;;;21.51;50.75;100680.84;5047476;28;20036;-67
2023/09/23 00:28:14;;;;;;;3.13;1.80;;;;;;;21.50;50.63;100676.50;5046542;28;20114;-67
2023/09/23 00:30:40;;;;;;;3.03;1.80;;;;;;;21.51;50.82;100686.97;5046618;28;20505;-68
2023/09/23 00:33:09;;;;;;;3.83;1.63;;;;;;;21.51;50.58;100686.97;5047028;28;20032;-69
2023/09/23 00:35:36;;;;;;;4.30;1.77;;;;;;;21.50;50.85;100681.81;5046839;28;20029;-67
2023/09/23 00:38:04;;;;;;;3.83;1.77;;;;;;;21.51;50.58;100686.13;5046772;28;20095;-67
2023/09/23 00:40:32;;;;;;;3.47;1.48;;;;;;;21.49;50.81;100690.72;5058537;28;20031;-67
2023/09/23 00:43:12;;;;;;;3.03;1.55;;;;;;;21.48;50.71;100689.06;5066839;28;20059;-67
2023/09/23 00:45:45;;;;;;;3.00;1.50;;;;;;;21.46;50.76;100698.94;5047061;28;20626;-66
2023/09/23 00:48:11;;;;;;;3.05;1.52;;;;;;;21.46;50.62;100694.50;5046709;28;20035;-67
2023/09/23 00:50:36;;;;;;;3.35;1.75;;;;;;;21.45;50.33;100687.53;5046715;28;20460;-67
2023/09/23 00:53:04;;;;;;;4.70;1.63;;;;;;;21.48;50.93;100691.69;5046873;28;20033;-68
2023/09/23 00:55:31;;;;;;;3.30;1.73;;;;;;;21.45;50.84;100687.53;5046574;28;20380;-67
2023/09/23 00:58:00;;;;;;;4.75;1.70;;;;;;;21.46;50.67;100699.81;5060585;28;20028;-67
2023/09/23 01:00:28;;;;;;;2.75;1.30;;;;;;;21.45;50.56;100692.00;5067367;28;20063;-66
2023/09/23 01:02:57;;;;;;;3.30;1.67;;;;;;;21.45;50.61;100698.13;5054819;28;20127;-66
2023/09/23 01:05:27;;;;;;;3.22;1.70;;;;;;;21.46;50.80;100705.09;5039356;28;20123;-67
2023/09/23 01:07:56;;;;;;;3.28;1.50;;;;;;;21.44;50.91;100700.94;5046668;28;20060;-68
2023/09/23 01:10:23;;;;;;;2.53;1.35;;;;;;;21.43;50.91;100705.41;5046651;28;20868;-67
2023/09/23 01:12:48;;;;;;;3.63;1.65;;;;;;;21.43;50.89;100704.56;5046751;28;20033;-67
2023/09/23 01:15:17;;;;;;;2.95;1.60;;;;;;;21.43;50.64;100715.16;5046413;28;20029;-67
2023/09/23 01:17:52;;;;;;;3.05;1.42;;;;;;;21.42;50.68;100714.34;5046594;28;20485;-67
2023/09/23 01:20:18;;;;;;;2.65;1.40;;;;;;;21.43;50.45;100715.16;5046384;28;20476;-67
2023/09/23 01:22:44;;;;;;;3.15;1.45;;;;;;;21.44;50.71;100730.09;5046704;28;20090;-67
2023/09/23 01:25:10;;;;;;;3.28;1.48;;;;;;;21.42;50.50;100724.13;5046604;28;20071;-67
2023/09/23 01:27:35;;;;;;;3.30;1.60;;;;;;;21.42;50.76;100726.75;5046586;28;20024;-66
2023/09/23 01:30:04;;;;;;;3.17;1.52;;;;;;;21.41;50.77;100725.09;5045266;28;20354;-67
2023/09/23 01:32:45;;;;;;;2.92;1.23;;;;;;;21.40;50.57;100724.25;5046604;28;20032;-67
2023/09/23 01:35:11;;;;;;;4.45;1.30;;;;;;;21.42;50.46;100726.75;5046458;28;20035;-67
2023/09/23 01:37:36;;;;;;;2.97;1.38;;;;;;;21.41;50.58;100731.22;5046371;28;20384;-67
2023/09/23 01:40:03;;;;;;;2.97;1.33;;;;;;;21.39;50.52;100719.94;5046182;28;20033;-67
2023/09/23 01:42:30;;;;;;;3.85;1.17;;;;;;;21.41;50.65;100735.69;5032278;28;20057;-67
2023/09/23 01:44:57;;;;;;;3.53;1.27;;;;;;;21.40;50.64;100740.16;5026165;28;20036;-67
2023/09/23 01:47:23;;;;;;;3.13;1.40;;;;;;;21.40;50.73;100742.00;5026155;28;20037;-67
2023/09/23 01:49:48;;;;;;;3.70;1.50;;;;;;;21.37;50.46;100740.47;5025665;28;20077;-67
2023/09/23 01:52:16;;;;;;;3.10;1.33;;;;;;;21.38;50.78;100744.78;5025683;28;20445;-67
2023/09/23 01:54:44;;;;;;;2.70;1.25;;;;;;;21.37;50.81;100735.16;5025405;28;20474;-67
2023/09/23 01:57:15;;;;;;;2.90;1.35;;;;;;;21.37;50.47;100735.97;5025793;28;20179;-67
2023/09/23 01:59:41;;;;;;;3.75;1.40;;;;;;;21.35;50.55;100737.97;5004732;28;20057;-67
2023/09/23 02:02:09;;;;;;;3.88;1.23;;;;;;;21.36;50.48;100744.09;5023131;28;20025;-66
2023/09/23 02:04:35;;;;;;;4.18;1.40;;;;;;;21.37;50.74;100746.59;5026124;28;20033;-67
2023/09/23 02:07:01;;;;;;;2.25;1.27;;;;;;;21.36;50.46;100744.09;5004798;28;20026;-66
2023/09/23 02:09:26;;;;;;;3.30;1.30;;;;;;;21.37;50.19;100753.72;5025502;28;20037;-67
2023/09/23 02:11:53;;;;;;;2.70;1.25;;;;;;;21.36;50.42;100752.91;5026234;28;20674;-67
2023/09/23 02:14:19;;;;;;;3.65;1.30;;;;;;;21.35;50.74;100753.03;5026414;28;20108;-68
2023/09/23 02:16:47;;;;;;;4.10;1.70;;;;;;;21.35;50.28;100763.63;5025965;28;20112;-68
2023/09/23 02:19:13;;;;;;;2.70;1.35;;;;;;;21.35;50.50;100763.63;5026120;28;20032;-66
2023/09/23 02:21:38;;;;;;;2.45;1.17;;;;;;;21.33;50.47;100761.13;5025894;28;20422;-67
2023/09/23 02:24:04;;;;;;;2.53;1.20;;;;;;;21.33;50.15;100769.09;5042097;28;20044;-67
2023/09/23 02:26:29;;;;;;;2.83;1.25;;;;;;;21.34;50.13;100767.25;5045714;28;20021;-66
2023/09/23 02:28:55;;;;;;;2.22;1.10;;;;;;;21.33;50.07;100769.09;5045823;28;20548;-67
2023/09/23 02:31:21;;;;;;;3.80;1.20;;;;;;;21.31;50.03;100768.38;5044804;28;20052;-67
2023/09/23 02:33:46;;;;;;;2.33;1.10;;;;;;;21.33;50.21;100768.22;5044945;28;20048;-68
2023/09/23 02:36:14;;;;;;;2.97;1.20;;;;;;;21.30;50.19;100768.53;5044946;28;20542;-67
2023/09/23 02:38:42;;;;;;;3.33;1.15;;;;;;;21.30;50.11;100779.13;5044979;28;20029;-67
2023/09/23 02:41:08;;;;;;;2.83;1.23;;;;;;;21.30;49.88;100779.97;5046049;28;20963;-67
2023/09/23 02:43:34;;;;;;;2.40;1.10;;;;;;;21.30;50.44;100784.44;5065530;28;20036;-67
2023/09/23 02:46:02;;;;;;;2.30;1.00;;;;;;;21.31;49.95;100797.53;5064842;28;20025;-67
2023/09/23 02:48:28;;;;;;;3.67;1.30;;;;;;;21.30;50.34;100792.38;5065037;28;20017;-67
2023/09/23 02:50:58;;;;;;;2.97;1.20;;;;;;;21.30;50.17;100795.03;5064343;28;20032;-67
2023/09/23 02:53:24;;;;;;;2.78;1.10;;;;;;;21.29;50.14;100793.38;5045561;28;20465;-67
2023/09/23 02:56:08;;;;;;;2.60;0.85;;;;;;;21.27;50.38;100793.53;5048845;28;20131;-67
2023/09/23 02:58:34;;;;;;;4.10;1.05;;;;;;;21.30;50.05;100795.03;5048986;28;20032;-67
2023/09/23 03:01:04;;;;;;;2.90;1.10;;;;;;;21.28;50.25;100797.81;5048707;28;20029;-67
2023/09/23 03:03:30;;;;;;;2.67;1.08;;;;;;;21.28;49.93;100803.13;5048413;28;20072;-68
2023/09/23 03:05:57;;;;;;;3.88;1.10;;;;;;;21.28;49.91;100800.47;5048364;28;20535;-67
2023/09/23 03:08:22;;;;;;;3.83;1.20;;;;;;;21.26;50.26;100799.81;5048825;28;20025;-67
2023/09/23 03:10:49;;;;;;;2.88;1.10;;;;;;;21.27;50.21;100806.78;5048585;28;20103;-67
2023/09/23 03:13:17;;;;;;;3.83;1.30;;;;;;;21.27;50.14;100804.13;5048805;28;20029;-69
2023/09/23 03:15:48;;;;;;;3.70;1.10;;;;;;;21.27;50.12;100805.94;5048080;28;20040;-67
2023/09/23 03:18:33;;;;;;;3.50;1.00;;;;;;;21.24;49.90;100804.41;5048314;28;20043;-67
2023/09/23 03:21:10;;;;;;;4.88;1.25;;;;;;;21.25;50.22;100803.41;5048677;28;20029;-67
2023/09/23 03:23:39;;;;;;;2.95;1.00;;;;;;;21.23;50.21;100800.09;5048374;28;20425;-67
2023/09/23 03:26:08;;;;;;;4.43;1.10;;;;;;;21.25;49.78;100810.53;5047456;28;20056;-67
2023/09/23 03:28:35;;;;;;;4.38;1.08;;;;;;;21.25;49.96;100819.31;5048041;28;20028;-67
2023/09/23 03:31:01;;;;;;;4.00;1.05;;;;;;;21.23;49.80;100821.28;5048182;28;20493;-66
2023/09/23 03:33:29;;;;;;;3.00;0.90;;;;;;;21.25;49.96;100826.44;5048014;28;20108;-67
2023/09/23 03:35:55;;;;;;;4.97;1.40;;;;;;;21.23;49.88;100820.47;5047949;28;20040;-67
2023/09/23 03:38:21;;;;;;;3.03;0.90;;;;;;;21.23;50.07;100823.94;5048004;28;20427;-67
2023/09/23 03:40:54;;;;;;;2.97;0.90;;;;;;;21.23;49.80;100820.47;5047804;28;20043;-68
2023/09/23 03:43:20;;;;;;;2.97;1.77;;;;;;;21.22;49.89;100827.59;5028262;28;20089;-67
2023/09/23 03:45:47;;;;;;;2.25;1.08;;;;;;;21.23;49.71;100828.41;5028449;28;20274;-67
2023/09/23 03:48:13;;;;;;;2.63;0.90;;;;;;;21.22;49.92;100832.03;5028708;28;20048;-67
2023/09/23 03:50:38;;;;;;;2.60;1.00;;;;;;;21.22;49.77;100832.91;5028233;28;20030;-67
2023/09/23 03:53:03;;;;;;;3.17;0.90;;;;;;;21.22;49.80;100838.19;5028341;28;20060;-66
2023/09/23 03:55:29;;;;;;;3.03;1.00;;;;;;;21.20;49.61;100838.34;5028160;28;20116;-67
2023/09/23 03:57:56;;;;;;;2.05;0.90;;;;;;;21.21;49.89;100839.16;5027809;28;20485;-67
2023/09/23 04:00:26;;;;;;;2.97;0.80;;;;;;;21.20;49.50;100841.00;5028296;28;20035;-67
2023/09/23 04:02:51;;;;;;;3.55;1.00;;;;;;;21.19;49.54;100839.31;5028523;28;20048;-69
2023/09/23 04:05:19;;;;;;;3.03;0.90;;;;;;;21.20;49.99;100838.34;5027404;28;20470;-67
2023/09/23 04:07:50;;;;;;;2.67;1.10;;;;;;;21.18;49.64;100839.44;5028488;28;20037;-67
2023/09/23 04:10:23;;;;;;;2.20;0.90;;;;;;;21.19;49.93;100843.78;5028004;28;20029;-67
2023/09/23 04:12:49;;;;;;;4.50;1.05;;;;;;;21.19;49.72;100841.97;5028086;28;20118;-66
2023/09/23 04:15:15;;;;;;;2.53;1.00;;;;;;;21.18;49.83;100847.41;5027499;28;20375;-67
2023/09/23 04:17:40;;;;;;;2.15;0.95;;;;;;;21.19;49.86;100859.69;5027612;28;20186;-65
2023/09/23 04:20:10;;;;;;;2.17;0.90;;;;;;;21.16;49.81;100855.50;5027463;28;20037;-66
2023/09/23 04:22:40;;;;;;;2.55;1.00;;;;;;;21.16;49.77;100852.03;5027350;28;20037;-65
2023/09/23 04:25:10;;;;;;;3.25;0.95;;;;;;;21.19;49.69;100867.63;5027489;28;20032;-67
2023/09/23 04:27:37;;;;;;;2.45;0.90;;;;;;;21.18;49.65;100866.78;5027509;28;20032;-67
2023/09/23 04:30:11;;;;;;;3.45;1.10;;;;;;;21.18;49.42;100873.91;5026726;28;20052;-67
2023/09/23 04:32:39;;;;;;;;;;;;;;;21.19;49.53;100870.28;5039095;28;20118;-66
2023/09/23 04:35:06;;;;;;;3.05;1.00;;;;;;;21.22;49.76;100872.66;5036823;28;19921;-66
2023/09/23 04:37:36;;;;;;;2.85;0.98;;;;;;;21.19;49.41;100881.72;5020060;28;20124;-66
2023/09/23 04:40:05;;;;;;;3.85;1.00;;;;;;;21.18;49.70;100881.84;5027380;28;20037;-67
2023/09/23 04:42:30;;;;;;;2.33;1.05;;;;;;;21.18;49.67;100895.09;5039706;28;20060;-67
2023/09/23 04:44:56;;;;;;;3.47;1.23;;;;;;;21.17;49.69;100890.78;5047180;28;20025;-66
2023/09/23 04:47:22;;;;;;;3.60;0.95;;;;;;;21.13;49.55;100892.06;5046848;28;20033;-66
2023/09/23 04:49:48;;;;;;;2.97;0.82;;;;;;;21.16;49.44;100899.72;5046489;28;20032;-66
2023/09/23 04:52:15;;;;;;;3.63;0.98;;;;;;;21.13;49.50;100889.41;5046830;28;20025;-66
2023/09/23 04:54:42;;;;;;;1.98;0.85;;;;;;;21.15;49.41;100898.88;5046671;28;20492;-66
2023/09/23 04:57:09;;;;;;;4.93;1.15;;;;;;;21.14;49.41;100901.66;5046559;28;20039;-66
2023/09/23 04:59:35;;;;;;;3.65;1.00;;;;;;;21.13;49.59;100900.84;5046273;28;20049;-66
2023/09/23 05:02:00;;;;;;;3.40;1.02;;;;;;;21.13;49.73;100908.78;5046662;28;20025;-66
2023/09/23 05:04:25;;;;;;;3.80;1.02;;;;;;;21.13;49.63;100905.31;5047052;28;20062;-66
2023/09/23 05:06:50;;;;;;;2.78;1.13;;;;;;;21.10;49.48;100914.38;5046815;28;20029;-67
2023/09/23 05:09:16;;;;;;;2.70;1.00;;;;;;;21.12;49.55;100916.88;5046997;28;20031;-68
2023/09/23 05:11:41;;;;;;;2.95;1.02;;;;;;;21.12;49.50;100922.16;5046563;28;20108;-68
2023/09/23 05:14:07;;;;;;;2.45;1.00;;;;;;;21.11;49.54;100924.00;5046718;28;20033;-67
2023/09/23 05:16:32;;;;;;;2.45;0.80;;;;;;;21.10;49.64;100927.63;5046532;28;20029;-67
2023/09/23 05:18:57;;;;;;;2.28;0.90;;;;;;;21.11;49.36;100933.75;5046690;28;20035;-67
2023/09/23 05:21:24;;;;;;;2.60;0.90;;;;;;;21.11;49.36;100939.03;5055738;28;20029;-67
2023/09/23 05:23:50;;;;;;;2.33;1.05;;;;;;;21.16;49.55;100942.13;5044423;28;20029;-68
2023/09/23 05:26:16;;;;;;;2.53;0.95;;;;;;;21.16;49.86;100948.25;5046167;28;20115;-68
2023/09/23 05:28:42;;;;;;;3.10;0.90;;;;;;;21.15;49.82;100953.69;5059462;28;20128;-68
2023/09/23 05:31:08;;;;;;;2.95;0.90;;;;;;;21.13;49.70;100960.97;5047772;28;20052;-67
2023/09/23 05:33:33;;;;;;;3.85;1.17;;;;;;;21.10;50.10;100961.22;5048483;28;20462;-67
2023/09/23 05:35:58;;;;;;;9.05;0.90;;;;;;;21.07;50.26;100970.28;5045980;28;20033;-71
2023/09/23 05:38:24;;;;;;;6.65;1.05;;;;;;;21.07;49.91;100980.06;5028025;28;20440;-67
2023/09/23 05:40:51;;;;;;;1.92;0.85;;;;;;;21.07;50.23;100980.06;5046236;28;20458;-68
2023/09/23 05:43:17;;;;;;;2.83;0.82;;;;;;;21.04;50.30;100983.00;5045667;28;20716;-68
2023/09/23 05:45:42;;;;;;;3.92;1.17;;;;;;;21.05;50.29;100987.31;5046536;28;20456;-69
2023/09/23 05:48:09;;;;;;;3.08;1.00;;;;;;;21.06;50.20;100999.56;5046361;28;20098;-68
2023/09/23 05:50:36;;;;;;;2.10;1.00;;;;;;;21.02;50.29;100999.03;5046327;28;20424;-68
2023/09/23 05:53:01;;;;;;;3.55;1.00;;;;;;;21.01;50.65;100995.56;5046378;28;20067;-67
2023/09/23 05:55:27;;;;;;;3.88;1.13;;;;;;;21.03;50.54;101006.00;5046427;28;20068;-67
2023/09/23 05:57:53;;;;;;;5.60;0.90;;;;;;;21.04;50.62;101004.19;5028185;28;20040;-67
2023/09/23 06:00:19;;;;;;;3.13;1.10;;;;;;;21.03;50.96;101003.38;5046284;28;20386;-67
2023/09/23 06:02:45;;;;;;;5.53;1.10;;;;;;;21.01;50.56;101008.81;5046077;28;20056;-66
2023/09/23 06:05:11;;;;;;;2.72;1.15;;;;;;;21.00;50.91;101012.41;5045763;28;20482;-65
2023/09/23 06:07:37;;;;;;;4.22;1.20;;;;;;;21.00;50.88;101017.72;5045223;28;20055;-64
2023/09/23 06:10:04;;;;;;;5.85;1.10;;;;;;;21.02;51.00;101029.00;5045531;28;20029;-65
2023/09/23 06:12:31;;;;;;;1.65;0.75;;;;;;;21.02;51.32;101026.34;5045661;28;20383;-66
2023/09/23 06:14:57;;;;;;;3.83;1.25;;;;;;;21.04;50.99;101041.28;5045027;28;20522;-66
2023/09/23 06:17:23;;;;;;;4.32;1.17;;;;;;;21.04;51.14;101043.94;5056130;28;20131;-65
2023/09/23 06:19:49;;;;;;;3.00;1.00;;;;;;;21.04;51.09;101049.22;5065476;28;20038;-65
2023/09/23 06:22:14;;;;;;;3.25;1.30;;;;;;;21.05;51.27;101056.22;5065427;28;20131;-66
2023/09/23 06:24:39;;;;;;;2.87;1.03;;;;;;;21.08;51.06;101063.88;5065412;28;20608;-65
2023/09/23 06:27:04;;;;;;;3.33;1.00;;;;;;;21.07;51.29;101062.22;5065263;28;20281;-67
2023/09/23 06:29:30;;;;;;;3.53;1.10;;;;;;;21.07;51.43;101063.03;5067847;28;20429;-65
2023/09/23 06:31:55;;;;;;;4.97;1.27;;;;;;;21.07;51.06;101062.22;5068781;28;20085;-66
2023/09/23 06:34:21;;;;;;;3.45;1.13;;;;;;;21.08;51.35;101072.66;5069730;28;20032;-67
2023/09/23 06:36:46;;;;;;;4.40;0.90;;;;;;;21.09;51.32;101069.03;5047846;28;20033;-66
2023/09/23 06:39:11;;;;;;;3.20;0.90;;;;;;;21.10;51.26;101078.66;5048554;28;20032;-65
2023/09/23 06:41:37;;;;;;;6.68;1.20;;;;;;;21.09;51.51;101082.28;5047652;28;20480;-64
2023/09/23 06:44:03;;;;;;;5.03;1.27;;;;;;;21.09;51.39;101079.63;5049079;28;20041;-66
2023/09/23 06:46:28;;;;;;;3.40;1.20;;;;;;;21.10;51.52;101089.25;5050453;28;20115;-65
2023/09/23 06:48:54;;;;;;;3.83;0.95;;;;;;;21.11;51.73;101084.78;5069072;28;20182;-64
2023/09/23 06:51:19;;;;;;;4.97;1.33;;;;;;;21.10;51.52;101094.56;5067386;28;20035;-65
2023/09/23 06:53:44;;;;;;;3.47;1.20;;;;;;;21.10;51.42;101099.84;5061016;28;20827;-64
2023/09/23 06:56:09;;;;;;;3.90;1.05;;;;;;;21.11;51.44;101104.19;5049107;28;20029;-66
2023/09/23 06:58:35;;;;;;;3.50;0.90;;;;;;;21.12;51.72;101102.38;5053975;28;20068;-66
2023/09/23 07:01:00;;;;;;;3.47;1.15;;;;;;;21.12;51.85;101099.72;5050999;28;20082;-65
2023/09/23 07:03:26;;;;;;;3.15;1.10;;;;;;;21.13;51.50;101106.69;5067783;28;20044;-67
2023/09/23 07:05:51;;;;;;;4.07;1.20;;;;;;;21.13;51.63;101106.69;5068742;28;20473;-66
2023/09/23 07:08:17;;;;;;;3.28;1.02;;;;;;;21.12;51.60;101108.50;5068866;28;20071;-65
2023/09/23 07:10:42;;;;;;;2.95;0.80;;;;;;;21.12;51.71;101116.44;5068423;28;20028;-64
2023/09/23 07:13:08;;;;;;;3.63;1.13;;;;;;;21.14;51.78;101118.97;5068520;28;20040;-65
2023/09/23 07:15:37;;;;;;;3.83;0.93;;;;;;;21.13;51.55;101122.59;5068214;28;20028;-65
2023/09/23 07:18:03;;;;;;;3.33;1.00;;;;;;;21.15;51.69;101132.06;5050182;28;20060;-65
2023/09/23 07:20:28;;;;;;;2.95;1.00;;;;;;;21.14;51.77;101127.78;5048723;28;20389;-66
2023/09/23 07:22:54;;;;;;;2.75;1.00;;;;;;;21.15;51.87;101137.38;5048754;28;20082;-65
2023/09/23 07:25:19;;;;;;;2.28;1.00;;;;;;;21.15;51.96;101140.03;5048627;28;20028;-66
2023/09/23 07:27:45;;;;;;;4.63;1.20;;;;;;;21.16;51.72;101144.38;5047862;28;20099;-63
2023/09/23 07:30:11;;;;;;;2.55;0.90;;;;;;;21.17;51.69;101146.03;5048323;28;20029;-66
2023/09/23 07:32:36;;;;;;;3.67;1.20;;;;;;;21.18;51.66;101147.69;5048203;28;20112;-65
2023/09/23 07:35:03;;;;;;;2.90;1.17;;;;;;;21.19;51.74;101159.16;5047920;28;20122;-67
2023/09/23 07:37:29;;;;;;;2.97;1.05;;;;;;;21.20;51.61;101155.53;5047890;28;20029;-67
2023/09/23 07:39:54;;;;;;;4.45;1.00;;;;;;;21.18;51.67;101158.31;5046717;28;20051;-67
2023/09/23 07:42:19;;;;;;;2.25;0.93;;;;;;;21.20;51.84;101174.06;5047828;28;20477;-67
2023/09/23 07:44:45;;;;;;;4.00;1.08;;;;;;;21.19;51.55;101169.75;5047767;28;20037;-66
2023/09/23 07:47:10;;;;;;;4.60;1.17;;;;;;;21.22;51.65;101176.59;5047763;28;20033;-66
2023/09/23 07:49:35;;;;;;;4.25;1.10;;;;;;;21.19;51.75;101175.91;5047292;28;20406;-68
2023/09/23 07:52:01;;;;;;;4.63;1.20;;;;;;;21.20;51.61;101179.38;5047553;28;20025;-67
2023/09/23 07:54:26;;;;;;;3.47;1.00;;;;;;;21.22;52.25;101179.22;5047541;28;20408;-67
2023/09/23 07:56:51;;;;;;;4.20;0.90;;;;;;;21.20;51.93;101185.53;5047492;28;20024;-67
2023/09/23 07:59:17;;;;;;;3.78;1.08;;;;;;;21.22;51.60;101179.22;5047194;28;20079;-67
2023/09/23 08:01:42;;;;;;;3.30;1.05;;;;;;;21.23;51.98;101187.06;5047670;28;20461;-67
2023/09/23 08:04:07;;;;;;;3.20;1.10;;;;;;;21.23;51.79;101196.81;5047878;28;20041;-67
2023/09/23 08:06:33;;;;;;;3.27;0.83;;;;;;;21.24;51.61;101195.81;5046900;28;20689;-69
2023/09/23 08:08:58;;;;;;;3.15;1.10;;;;;;;21.21;52.08;101202.25;5049954;28;20304;-68
2023/09/23 08:11:24;;;;;;;5.75;1.20;;;;;;;21.22;51.77;101209.25;5047865;28;20029;-68
2023/09/23 08:13:49;;;;;;;3.72;1.20;;;;;;;21.21;52.05;101212.88;5047403;28;20428;-68
2023/09/23 08:16:15;;;;;;;2.38;0.90;;;;;;;21.21;52.06;101212.88;5047421;28;20407;-68
2023/09/23 08:18:40;;;;;;;1.98;0.73;;;;;;;21.22;51.79;101219.84;5047095;28;20535;-68
2023/09/23 08:21:06;;;;;;;4.28;1.10;;;;;;;21.21;51.76;101220.81;5047052;28;20029;-68
2023/09/23 08:23:31;;;;;;;3.08;1.02;;;;;;;21.22;52.08;101224.28;5047349;28;20041;-66
2023/09/23 08:25:57;;;;;;;4.40;1.00;;;;;;;21.20;52.05;101232.38;5047008;28;20039;-69
2023/09/23 08:28:23;;;;;;;4.28;0.98;;;;;;;21.21;52.01;101236.72;5046892;28;20033;-68
2023/09/23 08:30:50;;;;;;;4.60;1.08;;;;;;;21.19;52.27;101239.50;5047383;28;20029;-68
2023/09/23 08:33:15;;;;;;;2.35;0.85;;;;;;;21.17;51.99;101237.94;5047711;28;20116;-68
2023/09/23 08:35:42;;;;;;;5.20;1.10;;;;;;;21.19;52.21;101242.16;5047756;28;20121;-68
2023/09/23 08:38:08;;;;;;;3.85;1.30;;;;;;;21.22;52.18;101242.84;5047656;28;20033;-69
2023/09/23 08:40:34;;;;;;;3.58;1.35;;;;;;;21.22;52.10;101250.78;5047685;28;20029;-67
2023/09/23 08:43:06;;;;;;;2.65;1.05;;;;;;;21.22;52.38;101256.09;5047529;28;20378;-68
2023/09/23 08:45:32;;;;;;;6.18;1.20;;;;;;;21.22;52.31;101256.97;5039662;28;20120;-68
2023/09/23 08:47:58;;;;;;;3.88;1.13;;;;;;;21.22;52.72;101266.69;5046668;28;20120;-68
2023/09/23 08:50:25;;;;;;;3.38;1.00;;;;;;;21.23;52.43;101273.69;5046915;28;20025;-68
2023/09/23 08:52:52;;;;;;;3.58;1.10;;;;;;;21.21;52.75;101281.78;5046177;28;20453;-68
2023/09/23 08:55:18;;;;;;;2.83;1.13;;;;;;;21.21;52.93;101279.13;5046326;28;20104;-69
2023/09/23 08:57:44;;;;;;;4.85;1.10;;;;;;;21.23;52.80;101289.59;5045654;28;20035;-69
2023/09/23 09:00:12;;;;;;;3.92;1.10;;;;;;;21.23;52.43;101293.06;5046641;28;20037;-69
2023/09/23 09:02:37;;;;;;;3.17;1.10;;;;;;;21.25;52.93;101290.28;5046993;28;20032;-68
2023/09/23 09:05:03;;;;;;;4.40;1.30;;;;;;;21.26;52.96;101286.69;5044869;28;20025;-68
2023/09/23 09:07:36;;;;;;;2.72;1.10;;;;;;;21.22;53.06;101285.25;5046858;28;20266;-68
2023/09/23 09:10:03;;;;;;;3.58;1.15;;;;;;;21.25;52.96;101292.94;5062536;28;20039;-68
2023/09/23 09:12:30;;;;;;;6.80;1.20;;;;;;;21.23;52.96;101297.53;5051360;28;20560;-68
2023/09/23 09:14:55;;;;;;;3.45;1.10;;;;;;;21.25;52.96;101293.78;5046639;28;20025;-68
2023/09/23 09:17:21;;;;;;;3.85;0.90;;;;;;;21.26;52.65;101305.22;5056767;28;20037;-68
2023/09/23 09:19:47;;;;;;;3.50;0.98;;;;;;;21.25;53.18;101303.53;5053936;28;20075;-67
2023/09/23 09:22:14;;;;;;;3.58;1.10;;;;;;;21.25;53.11;101317.63;5044010;28;20025;-67
2023/09/23 09:24:40;;;;;;;4.90;1.00;;;;;;;21.16;53.52;101313.97;5049844;28;20120;-66
2023/09/23 09:27:15;;;;;;;3.53;1.15;;;;;;;21.10;53.76;101322.47;5045332;28;20186;-67
2023/09/23 09:29:42;;;;;;;2.55;0.90;;;;;;;21.08;53.99;101331.50;5045856;28;20679;-67
2023/09/23 09:32:12;;;;;;;4.18;1.02;;;;;;;21.04;54.13;101335.41;5044897;28;20070;-68
2023/09/23 09:34:47;;;;;;;3.40;1.17;;;;;;;21.03;54.19;101331.94;5045804;28;20366;-67
2023/09/23 09:37:13;;;;;;;4.03;1.10;;;;;;;21.01;54.10;101328.53;5045294;28;20122;-67
2023/09/23 09:39:51;;;;;;;3.17;0.80;;;;;;;20.99;54.51;101331.31;5045299;28;20029;-67
2023/09/23 09:42:23;;;;;;;3.80;1.23;;;;;;;21.01;54.25;101326.75;5045478;28;20412;-67
2023/09/23 09:44:53;;;;;;;9.00;1.20;;;;;;;21.02;54.41;101335.53;5045515;28;20112;-67
2023/09/23 09:47:20;;;;;;;4.85;1.00;;;;;;;21.03;54.12;101345.19;5045831;28;20039;-68
2023/09/23 09:49:46;;;;;;;2.67;0.90;;;;;;;21.07;54.23;101343.09;5045313;28;20672;-67
2023/09/23 09:52:13;;;;;;;5.88;1.10;;;;;;;21.08;54.23;101353.56;5045919;28;20111;-68
2023/09/23 09:54:40;;;;;;;3.55;1.15;;;;;;;21.07;53.97;101345.75;5045714;28;20135;-67
2023/09/23 09:57:12;;;;;;;4.38;0.98;;;;;;;21.07;53.83;101348.41;5045043;28;20045;-67
2023/09/23 09:59:37;;;;;;;4.60;0.98;;;;;;;21.07;53.93;101351.88;5045543;28;20079;-66
2023/09/23 10:02:04;;;;;;;3.13;0.98;;;;;;;21.10;54.22;101350.78;5045413;28;20025;-67
2023/09/23 10:04:31;;;;;;;3.40;1.13;;;;;;;21.09;54.10;101351.75;5044357;28;20029;-67
2023/09/23 10:06:56;;;;;;;4.63;1.25;;;;;;;21.09;53.98;101349.09;5043081;28;20115;-68
2023/09/23 10:09:29;;;;;;;4.03;1.20;;;;;;;21.10;54.16;101348.97;5049589;28;20476;-68
2023/09/23 10:11:56;;;;;;;5.68;1.17;;;;;;;21.11;54.22;101355.94;5045244;28;20035;-65
2023/09/23 10:14:22;;;;;;;4.68;0.88;;;;;;;21.13;54.01;101353.16;5045532;28;20033;-66
2023/09/23 10:16:50;;;;;;;4.80;0.90;;;;;;;21.14;54.13;101357.47;5044930;28;20112;-68
2023/09/23 10:19:15;;;;;;;4.60;1.40;;;;;;;21.13;54.17;101366.41;5045279;28;20025;-67
2023/09/23 10:21:44;;;;;;;3.17;0.90;;;;;;;21.14;54.29;101360.13;5045403;28;20126;-66
2023/09/23 10:24:10;;;;;;;5.30;1.33;;;;;;;21.16;54.14;101367.00;5045343;28;20340;-66
2023/09/23 10:26:39;;;;;;;3.50;1.00;;;;;;;21.15;54.25;101370.59;5045640;28;20105;-68
2023/09/23 10:29:05;;;;;;;3.28;1.10;;;;;;;21.16;54.47;101363.50;5044995;28;20028;-67
2023/09/23 10:31:32;;;;;;;3.03;1.08;;;;;;;21.17;54.39;101368.69;5044661;28;20400;-67
2023/09/23 10:34:04;;;;;;;2.40;1.00;;;;;;;21.16;54.27;101377.59;5045146;28;20112;-67
2023/09/23 10:36:29;;;;;;;6.55;1.38;;;;;;;21.16;54.19;101372.28;5044824;28;20037;-67
2023/09/23 10:38:55;;;;;;;4.28;1.15;;;;;;;21.37;53.68;101379.34;5043494;28;20048;-68
2023/09/23 10:41:22;;;;;;;2.90;1.00;;;;;;;21.52;53.18;101380.72;5044579;28;20041;-69
2023/09/23 10:43:55;;;;;;;2.67;0.90;;;;;;;21.57;53.13;101377.66;5044794;28;20037;-69
2023/09/23 10:46:21;;;;;;;3.95;1.17;;;;;;;21.62;52.74;101380.75;5044283;28;20037;-70
2023/09/23 10:48:46;;;;;;;4.00;0.95;;;;;;;21.65;52.70;101395.53;5044388;28;20087;-69
2023/09/23 10:51:12;;;;;;;4.60;1.13;;;;;;;21.62;52.73;101390.50;5045165;28;20102;-68
2023/09/23 10:53:38;;;;;;;4.10;0.90;;;;;;;21.64;52.66;101400.00;5045022;28;20059;-66
2023/09/23 10:56:04;;;;;;;8.40;1.23;;;;;;;21.58;52.86;101403.19;5040916;28;20411;-66
2023/09/23 10:58:33;;;;;;;3.97;1.00;;;;;;;21.45;53.49;101413.16;5045037;28;20481;-69
2023/09/23 11:01:00;;;;;;;7.07;1.20;;;;;;;21.36;53.60;101405.03;5057468;28;20416;-66
2023/09/23 11:03:25;;;;;;;5.10;1.63;;;;;;;21.29;53.95;101413.66;5063543;28;20033;-67
2023/09/23 11:05:51;;;;;;;6.40;1.30;;;;;;;21.25;53.85;101406.91;5063811;28;20040;-66
2023/09/23 11:08:18;;;;;;;5.65;1.40;;;;;;;21.30;53.81;101410.88;5063754;28;20040;-67
2023/09/23 11:10:48;;;;;;;4.95;1.25;;;;;;;21.45;53.46;101416.66;5058770;28;20109;-66
2023/09/23 11:13:14;;;;;;;4.30;1.02;;;;;;;21.40;54.01;101420.69;5056162;28;20033;-67
2023/09/23 11:15:45;;;;;;;5.30;1.20;;;;;;;21.49;53.47;101426.06;5061493;28;20037;-67
2023/09/23 11:18:14;;;;;;;5.82;1.38;;;;;;;21.56;53.31;101423.72;5044987;28;20028;-66
2023/09/23 11:20:41;;;;;;;5.60;1.92;;;;;;;21.60;52.96;101433.06;5047303;28;20032;-67
2023/09/23 11:23:07;;;;;;;4.68;1.00;;;;;;;21.60;53.09;101430.41;5045824;28;20029;-66